Time;durP1;ratioP1;P1;durP2;ratioP2;P2;SDS_P1;SDS_P2;PMS_P1;PMS_P2;Temp;Humidity;BMP_temperature;BMP_pressure;BME280_temperature;BME280_humidity;BME280_pressure;Samples;Min_cycle;Max_cycle;Signal;HPM_P1;HPM_P2
2021/09/20 00:00:30;;;;;;;2.55;2.35;;;;;;;12.56;86.64063;95123.71;;;;
2021/09/20 00:01:30;;;;;;;2.55;2.35;;;;;;;12.56;86.64063;95123.71;;;;
2021/09/20 00:02:31;;;;;;;2.55;2.35;;;;;;;12.56;86.64063;95123.71;;;;
2021/09/20 00:03:31;;;;;;;2.55;2.35;;;;;;;12.56;86.64063;95123.71;;;;
2021/09/20 00:04:32;;;;;;;2.55;2.35;;;;;;;12.56;86.64063;95123.71;;;;
2021/09/20 00:05:32;;;;;;;2.55;2.35;;;;;;;12.56;86.64063;95123.71;;;;
2021/09/20 00:06:33;;;;;;;3.35;3.05;;;;;;;12.53;86.98828;95120.98;;;;
2021/09/20 00:07:33;;;;;;;3.35;3.05;;;;;;;12.53;86.98828;95120.98;;;;
2021/09/20 00:08:35;;;;;;;3.35;3.05;;;;;;;12.53;86.98828;95120.98;;;;
2021/09/20 00:09:35;;;;;;;3.35;3.05;;;;;;;12.53;86.98828;95120.98;;;;
2021/09/20 00:10:36;;;;;;;3.35;3.05;;;;;;;12.53;86.98828;95120.98;;;;
2021/09/20 00:11:36;;;;;;;3.35;3.05;;;;;;;12.53;86.98828;95120.98;;;;
2021/09/20 00:12:37;;;;;;;3.35;3.05;;;;;;;12.53;86.98828;95120.98;;;;
2021/09/20 00:13:37;;;;;;;3.35;3.05;;;;;;;12.53;86.98828;95120.98;;;;
2021/09/20 00:14:38;;;;;;;3.35;3.05;;;;;;;12.53;86.98828;95120.98;;;;
2021/09/20 00:15:38;;;;;;;3.35;3.05;;;;;;;12.53;86.98828;95120.98;;;;
2021/09/20 00:16:39;;;;;;;3.35;3.05;;;;;;;12.53;86.98828;95120.98;;;;
2021/09/20 00:17:40;;;;;;;3.15;2.95;;;;;;;12.53;87.36328;95122.34;;;;
2021/09/20 00:18:40;;;;;;;3.15;2.95;;;;;;;12.53;87.36328;95122.34;;;;
2021/09/20 00:19:41;;;;;;;3.15;2.95;;;;;;;12.53;87.36328;95122.34;;;;
2021/09/20 00:20:41;;;;;;;3.15;2.95;;;;;;;12.53;87.36328;95122.34;;;;
2021/09/20 00:21:42;;;;;;;3.15;2.95;;;;;;;12.53;87.36328;95122.34;;;;
2021/09/20 00:22:42;;;;;;;3.15;2.95;;;;;;;12.53;87.36328;95122.34;;;;
2021/09/20 00:23:43;;;;;;;3.15;2.95;;;;;;;12.53;87.36328;95122.34;;;;
2021/09/20 00:24:44;;;;;;;3.15;2.95;;;;;;;12.53;87.36328;95122.34;;;;
2021/09/20 00:25:45;;;;;;;3.15;2.95;;;;;;;12.53;87.36328;95122.34;;;;
2021/09/20 00:26:45;;;;;;;3.15;2.95;;;;;;;12.53;87.36328;95122.34;;;;
2021/09/20 00:27:46;;;;;;;3.4;3.1;;;;;;;12.55;87.65625;95122.91;;;;
2021/09/20 00:28:46;;;;;;;3.4;3.1;;;;;;;12.55;87.65625;95122.91;;;;
2021/09/20 00:29:47;;;;;;;3.4;3.1;;;;;;;12.55;87.65625;95122.91;;;;
2021/09/20 00:30:47;;;;;;;3.4;3.1;;;;;;;12.55;87.65625;95122.91;;;;
2021/09/20 00:31:48;;;;;;;3.4;3.1;;;;;;;12.55;87.65625;95122.91;;;;
2021/09/20 00:32:48;;;;;;;3.4;3.1;;;;;;;12.55;87.65625;95122.91;;;;
2021/09/20 00:33:49;;;;;;;3.4;3.1;;;;;;;12.55;87.65625;95122.91;;;;
2021/09/20 00:34:49;;;;;;;3.4;3.1;;;;;;;12.55;87.65625;95122.91;;;;
2021/09/20 00:35:50;;;;;;;3.4;3.1;;;;;;;12.55;87.65625;95122.91;;;;
2021/09/20 00:36:50;;;;;;;3.4;3.1;;;;;;;12.55;87.65625;95122.91;;;;
2021/09/20 00:37:51;;;;;;;3.4;3.1;;;;;;;12.55;87.65625;95122.91;;;;
2021/09/20 00:38:52;;;;;;;3.35;3.05;;;;;;;12.58;87.87598;95124.27;;;;
2021/09/20 00:39:52;;;;;;;3.35;3.05;;;;;;;12.58;87.87598;95124.27;;;;
2021/09/20 00:40:52;;;;;;;3.35;3.05;;;;;;;12.58;87.87598;95124.27;;;;
2021/09/20 00:41:54;;;;;;;3.35;3.05;;;;;;;12.58;87.87598;95124.27;;;;
2021/09/20 00:42:54;;;;;;;3.35;3.05;;;;;;;12.58;87.87598;95124.27;;;;
2021/09/20 00:43:55;;;;;;;3.35;3.05;;;;;;;12.58;87.87598;95124.27;;;;
2021/09/20 00:44:55;;;;;;;3.35;3.05;;;;;;;12.58;87.87598;95124.27;;;;
2021/09/20 00:45:56;;;;;;;3.35;3.05;;;;;;;12.58;87.87598;95124.27;;;;
2021/09/20 00:46:57;;;;;;;3.35;3.05;;;;;;;12.58;87.87598;95124.27;;;;
2021/09/20 00:47:57;;;;;;;3.35;3.05;;;;;;;12.58;87.87598;95124.27;;;;
2021/09/20 00:48:58;;;;;;;3.9;3.6;;;;;;;12.57;88.16309;95116.71;;;;
2021/09/20 00:49:58;;;;;;;3.9;3.6;;;;;;;12.57;88.16309;95116.71;;;;
2021/09/20 00:50:59;;;;;;;3.9;3.6;;;;;;;12.57;88.16309;95116.71;;;;
2021/09/20 00:51:59;;;;;;;3.9;3.6;;;;;;;12.57;88.16309;95116.71;;;;
2021/09/20 00:53:00;;;;;;;3.9;3.6;;;;;;;12.57;88.16309;95116.71;;;;
2021/09/20 00:54:01;;;;;;;3.9;3.6;;;;;;;12.57;88.16309;95116.71;;;;
2021/09/20 00:55:01;;;;;;;3.9;3.6;;;;;;;12.57;88.16309;95116.71;;;;
2021/09/20 00:56:02;;;;;;;3.9;3.6;;;;;;;12.57;88.16309;95116.71;;;;
2021/09/20 00:57:04;;;;;;;3.9;3.6;;;;;;;12.57;88.16309;95116.71;;;;
2021/09/20 00:58:05;;;;;;;3.9;3.6;;;;;;;12.57;88.16309;95116.71;;;;
2021/09/20 00:59:07;;;;;;;3.9;3.6;;;;;;;12.57;88.16309;95116.71;;;;
2021/09/20 01:00:08;;;;;;;3.9;3.6;;;;;;;12.62;88.23633;95125.83;;;;
2021/09/20 01:01:09;;;;;;;3.9;3.6;;;;;;;12.62;88.23633;95125.83;;;;
2021/09/20 01:02:11;;;;;;;3.9;3.6;;;;;;;12.62;88.23633;95125.83;;;;
2021/09/20 01:03:11;;;;;;;3.9;3.6;;;;;;;12.62;88.23633;95125.83;;;;
2021/09/20 01:04:12;;;;;;;3.9;3.6;;;;;;;12.62;88.23633;95125.83;;;;
2021/09/20 01:05:12;;;;;;;3.9;3.6;;;;;;;12.62;88.23633;95125.83;;;;
2021/09/20 01:06:13;;;;;;;3.9;3.6;;;;;;;12.62;88.23633;95125.83;;;;
2021/09/20 01:07:13;;;;;;;3.9;3.6;;;;;;;12.62;88.23633;95125.83;;;;
2021/09/20 01:08:14;;;;;;;3.9;3.6;;;;;;;12.62;88.23633;95125.83;;;;
2021/09/20 01:09:14;;;;;;;3.9;3.6;;;;;;;12.62;88.23633;95125.83;;;;
2021/09/20 01:10:15;;;;;;;4.450001;4.050001;;;;;;;12.66;88.31055;95139.58;;;;
2021/09/20 01:11:16;;;;;;;4.450001;4.050001;;;;;;;12.66;88.31055;95139.58;;;;
2021/09/20 01:12:17;;;;;;;4.450001;4.050001;;;;;;;12.66;88.31055;95139.58;;;;
2021/09/20 01:13:18;;;;;;;4.450001;4.050001;;;;;;;12.66;88.31055;95139.58;;;;
2021/09/20 01:14:18;;;;;;;4.450001;4.050001;;;;;;;12.66;88.31055;95139.58;;;;
2021/09/20 01:15:19;;;;;;;4.450001;4.050001;;;;;;;12.66;88.31055;95139.58;;;;
2021/09/20 01:16:19;;;;;;;4.450001;4.050001;;;;;;;12.66;88.31055;95139.58;;;;
2021/09/20 01:17:20;;;;;;;4.450001;4.050001;;;;;;;12.66;88.31055;95139.58;;;;
2021/09/20 01:18:20;;;;;;;4.450001;4.050001;;;;;;;12.66;88.31055;95139.58;;;;
2021/09/20 01:19:21;;;;;;;4.450001;4.050001;;;;;;;12.66;88.31055;95139.58;;;;
2021/09/20 01:20:22;;;;;;;4.450001;4.050001;;;;;;;12.66;88.31055;95139.58;;;;
2021/09/20 01:21:23;;;;;;;3.8;3.5;;;;;;;12.69;88.37988;95143.13;;;;
2021/09/20 01:22:24;;;;;;;3.8;3.5;;;;;;;12.69;88.37988;95143.13;;;;
2021/09/20 01:23:24;;;;;;;3.8;3.5;;;;;;;12.69;88.37988;95143.13;;;;
2021/09/20 01:24:25;;;;;;;3.8;3.5;;;;;;;12.69;88.37988;95143.13;;;;
2021/09/20 01:25:26;;;;;;;3.8;3.5;;;;;;;12.69;88.37988;95143.13;;;;
2021/09/20 01:26:27;;;;;;;3.8;3.5;;;;;;;12.69;88.37988;95143.13;;;;
2021/09/20 01:27:29;;;;;;;3.8;3.5;;;;;;;12.69;88.37988;95143.13;;;;
2021/09/20 01:28:29;;;;;;;3.8;3.5;;;;;;;12.69;88.37988;95143.13;;;;
2021/09/20 01:29:30;;;;;;;3.8;3.5;;;;;;;12.69;88.37988;95143.13;;;;
2021/09/20 01:30:32;;;;;;;3.8;3.5;;;;;;;12.69;88.37988;95143.13;;;;
2021/09/20 01:31:32;;;;;;;4.349999;3.95;;;;;;;12.66;88.57813;95149.05;;;;
2021/09/20 01:32:33;;;;;;;4.349999;3.95;;;;;;;12.66;88.57813;95149.05;;;;
2021/09/20 01:33:34;;;;;;;4.349999;3.95;;;;;;;12.66;88.57813;95149.05;;;;
2021/09/20 01:34:35;;;;;;;4.349999;3.95;;;;;;;12.66;88.57813;95149.05;;;;
2021/09/20 01:35:35;;;;;;;4.349999;3.95;;;;;;;12.66;88.57813;95149.05;;;;
2021/09/20 01:36:36;;;;;;;4.349999;3.95;;;;;;;12.66;88.57813;95149.05;;;;
2021/09/20 01:37:36;;;;;;;4.349999;3.95;;;;;;;12.66;88.57813;95149.05;;;;
2021/09/20 01:38:37;;;;;;;4.349999;3.95;;;;;;;12.66;88.57813;95149.05;;;;
2021/09/20 01:39:38;;;;;;;4.349999;3.95;;;;;;;12.66;88.57813;95149.05;;;;
2021/09/20 01:40:39;;;;;;;4.349999;3.95;;;;;;;12.66;88.57813;95149.05;;;;
2021/09/20 01:41:40;;;;;;;4.349999;3.95;;;;;;;12.66;88.57813;95149.05;;;;
2021/09/20 01:42:40;;;;;;;4.05;3.7;;;;;;;12.63;89.0625;95149.13;;;;
2021/09/20 01:43:42;;;;;;;4.05;3.7;;;;;;;12.63;89.0625;95149.13;;;;
2021/09/20 01:44:43;;;;;;;4.05;3.7;;;;;;;12.63;89.0625;95149.13;;;;
2021/09/20 01:45:46;;;;;;;4.05;3.7;;;;;;;12.63;89.0625;95149.13;;;;
2021/09/20 01:46:47;;;;;;;4.05;3.7;;;;;;;12.63;89.0625;95149.13;;;;
2021/09/20 01:47:49;;;;;;;4.05;3.7;;;;;;;12.63;89.0625;95149.13;;;;
2021/09/20 01:48:50;;;;;;;4.05;3.7;;;;;;;12.63;89.0625;95149.13;;;;
2021/09/20 01:49:51;;;;;;;4.05;3.7;;;;;;;12.63;89.0625;95149.13;;;;
2021/09/20 01:50:51;;;;;;;4.05;3.7;;;;;;;12.63;89.0625;95149.13;;;;
2021/09/20 01:51:52;;;;;;;4.05;3.7;;;;;;;12.63;89.0625;95149.13;;;;
2021/09/20 01:52:53;;;;;;;4;3.6;;;;;;;12.61;89.34961;95158.86;;;;
2021/09/20 01:53:53;;;;;;;4;3.6;;;;;;;12.61;89.34961;95158.86;;;;
2021/09/20 01:54:54;;;;;;;4;3.6;;;;;;;12.61;89.34961;95158.86;;;;
2021/09/20 01:55:55;;;;;;;4;3.6;;;;;;;12.61;89.34961;95158.86;;;;
2021/09/20 01:56:56;;;;;;;4;3.6;;;;;;;12.61;89.34961;95158.86;;;;
2021/09/20 01:57:57;;;;;;;4;3.6;;;;;;;12.61;89.34961;95158.86;;;;
2021/09/20 01:58:57;;;;;;;4;3.6;;;;;;;12.61;89.34961;95158.86;;;;
2021/09/20 01:59:58;;;;;;;4;3.6;;;;;;;12.61;89.34961;95158.86;;;;
2021/09/20 02:00:59;;;;;;;4;3.6;;;;;;;12.61;89.34961;95158.86;;;;
2021/09/20 02:01:59;;;;;;;4;3.6;;;;;;;12.61;89.34961;95158.86;;;;
2021/09/20 02:03:00;;;;;;;4;3.6;;;;;;;12.61;89.34961;95158.86;;;;
2021/09/20 02:04:00;;;;;;;3.5;3.2;;;;;;;12.6;89.68848;95159.12;;;;
2021/09/20 02:05:01;;;;;;;3.5;3.2;;;;;;;12.6;89.68848;95159.12;;;;
2021/09/20 02:06:02;;;;;;;3.5;3.2;;;;;;;12.6;89.68848;95159.12;;;;
2021/09/20 02:07:02;;;;;;;3.5;3.2;;;;;;;12.6;89.68848;95159.12;;;;
2021/09/20 02:08:03;;;;;;;3.5;3.2;;;;;;;12.6;89.68848;95159.12;;;;
2021/09/20 02:09:06;;;;;;;3.5;3.2;;;;;;;12.6;89.68848;95159.12;;;;
2021/09/20 02:10:07;;;;;;;3.5;3.2;;;;;;;12.6;89.68848;95159.12;;;;
2021/09/20 02:11:11;;;;;;;3.5;3.2;;;;;;;12.6;89.68848;95159.12;;;;
2021/09/20 02:12:12;;;;;;;3.5;3.2;;;;;;;12.6;89.68848;95159.12;;;;
2021/09/20 02:13:13;;;;;;;3.5;3.2;;;;;;;12.6;89.68848;95159.12;;;;
2021/09/20 02:14:13;;;;;;;3.65;2.9;;;;;;;12.59;89.91309;95163.7;;;;
2021/09/20 02:15:14;;;;;;;3.65;2.9;;;;;;;12.59;89.91309;95163.7;;;;
2021/09/20 02:16:14;;;;;;;3.65;2.9;;;;;;;12.59;89.91309;95163.7;;;;
2021/09/20 02:17:15;;;;;;;3.65;2.9;;;;;;;12.59;89.91309;95163.7;;;;
2021/09/20 02:18:16;;;;;;;3.65;2.9;;;;;;;12.59;89.91309;95163.7;;;;
2021/09/20 02:19:16;;;;;;;3.65;2.9;;;;;;;12.59;89.91309;95163.7;;;;
2021/09/20 02:20:17;;;;;;;3.65;2.9;;;;;;;12.59;89.91309;95163.7;;;;
2021/09/20 02:21:17;;;;;;;3.65;2.9;;;;;;;12.59;89.91309;95163.7;;;;
2021/09/20 02:22:18;;;;;;;3.65;2.9;;;;;;;12.59;89.91309;95163.7;;;;
2021/09/20 02:23:18;;;;;;;3.65;2.9;;;;;;;12.59;89.91309;95163.7;;;;
2021/09/20 02:24:19;;;;;;;3.65;2.9;;;;;;;12.59;89.91309;95163.7;;;;
2021/09/20 02:25:21;;;;;;;2.8;2.6;;;;;;;12.58;90.12305;95168.44;;;;
2021/09/20 02:26:21;;;;;;;2.8;2.6;;;;;;;12.58;90.12305;95168.44;;;;
2021/09/20 02:27:22;;;;;;;2.8;2.6;;;;;;;12.58;90.12305;95168.44;;;;
2021/09/20 02:28:22;;;;;;;2.8;2.6;;;;;;;12.58;90.12305;95168.44;;;;
2021/09/20 02:29:23;;;;;;;2.8;2.6;;;;;;;12.58;90.12305;95168.44;;;;
2021/09/20 02:30:24;;;;;;;2.8;2.6;;;;;;;12.58;90.12305;95168.44;;;;
2021/09/20 02:31:24;;;;;;;2.8;2.6;;;;;;;12.58;90.12305;95168.44;;;;
2021/09/20 02:32:25;;;;;;;2.8;2.6;;;;;;;12.58;90.12305;95168.44;;;;
2021/09/20 02:33:25;;;;;;;2.8;2.6;;;;;;;12.58;90.12305;95168.44;;;;
2021/09/20 02:34:26;;;;;;;2.8;2.6;;;;;;;12.58;90.12305;95168.44;;;;
2021/09/20 02:35:26;;;;;;;2.900001;2.6;;;;;;;12.58;90.29395;95169.37;;;;
2021/09/20 02:36:27;;;;;;;2.900001;2.6;;;;;;;12.58;90.29395;95169.37;;;;
2021/09/20 02:37:27;;;;;;;2.900001;2.6;;;;;;;12.58;90.29395;95169.37;;;;
2021/09/20 02:38:28;;;;;;;2.900001;2.6;;;;;;;12.58;90.29395;95169.37;;;;
2021/09/20 02:39:29;;;;;;;2.900001;2.6;;;;;;;12.58;90.29395;95169.37;;;;
2021/09/20 02:40:29;;;;;;;2.900001;2.6;;;;;;;12.58;90.29395;95169.37;;;;
2021/09/20 02:41:30;;;;;;;2.900001;2.6;;;;;;;12.58;90.29395;95169.37;;;;
2021/09/20 02:42:31;;;;;;;2.900001;2.6;;;;;;;12.58;90.29395;95169.37;;;;
2021/09/20 02:43:32;;;;;;;2.900001;2.6;;;;;;;12.58;90.29395;95169.37;;;;
2021/09/20 02:44:33;;;;;;;2.900001;2.6;;;;;;;12.58;90.29395;95169.37;;;;
2021/09/20 02:45:33;;;;;;;2.900001;2.6;;;;;;;12.58;90.29395;95169.37;;;;
2021/09/20 02:46:34;;;;;;;3.1;2.8;;;;;;;12.56;90.50488;95170.58;;;;
2021/09/20 02:47:34;;;;;;;3.1;2.8;;;;;;;12.56;90.50488;95170.58;;;;
2021/09/20 02:48:36;;;;;;;3.1;2.8;;;;;;;12.56;90.50488;95170.58;;;;
2021/09/20 02:49:37;;;;;;;3.1;2.8;;;;;;;12.56;90.50488;95170.58;;;;
2021/09/20 02:50:38;;;;;;;3.1;2.8;;;;;;;12.56;90.50488;95170.58;;;;
2021/09/20 02:51:38;;;;;;;3.1;2.8;;;;;;;12.56;90.50488;95170.58;;;;
2021/09/20 02:52:39;;;;;;;3.1;2.8;;;;;;;12.56;90.50488;95170.58;;;;
2021/09/20 02:53:39;;;;;;;3.1;2.8;;;;;;;12.56;90.50488;95170.58;;;;
2021/09/20 02:54:40;;;;;;;3.1;2.8;;;;;;;12.56;90.50488;95170.58;;;;
2021/09/20 02:55:40;;;;;;;3.1;2.8;;;;;;;12.56;90.50488;95170.58;;;;
2021/09/20 02:56:41;;;;;;;3.1;2.8;;;;;;;12.56;90.50488;95170.58;;;;
2021/09/20 02:57:42;;;;;;;3.85;3.35;;;;;;;12.55;90.79102;95172.6;;;;
2021/09/20 02:58:42;;;;;;;3.85;3.35;;;;;;;12.55;90.79102;95172.6;;;;
2021/09/20 02:59:43;;;;;;;3.85;3.35;;;;;;;12.55;90.79102;95172.6;;;;
2021/09/20 03:00:43;;;;;;;3.85;3.35;;;;;;;12.55;90.79102;95172.6;;;;
2021/09/20 03:01:44;;;;;;;3.85;3.35;;;;;;;12.55;90.79102;95172.6;;;;
2021/09/20 03:02:44;;;;;;;3.85;3.35;;;;;;;12.55;90.79102;95172.6;;;;
2021/09/20 03:03:45;;;;;;;3.85;3.35;;;;;;;12.55;90.79102;95172.6;;;;
2021/09/20 03:04:45;;;;;;;3.85;3.35;;;;;;;12.55;90.79102;95172.6;;;;
2021/09/20 03:05:46;;;;;;;3.85;3.35;;;;;;;12.55;90.79102;95172.6;;;;
2021/09/20 03:06:46;;;;;;;3.85;3.35;;;;;;;12.55;90.79102;95172.6;;;;
2021/09/20 03:07:47;;;;;;;5.6;3.7;;;;;;;12.53;91.00098;95181.09;;;;
2021/09/20 03:08:47;;;;;;;5.6;3.7;;;;;;;12.53;91.00098;95181.09;;;;
2021/09/20 03:09:48;;;;;;;5.6;3.7;;;;;;;12.53;91.00098;95181.09;;;;
2021/09/20 03:10:48;;;;;;;5.6;3.7;;;;;;;12.53;91.00098;95181.09;;;;
2021/09/20 03:11:49;;;;;;;5.6;3.7;;;;;;;12.53;91.00098;95181.09;;;;
2021/09/20 03:12:49;;;;;;;5.6;3.7;;;;;;;12.53;91.00098;95181.09;;;;
2021/09/20 03:13:50;;;;;;;5.6;3.7;;;;;;;12.53;91.00098;95181.09;;;;
2021/09/20 03:14:50;;;;;;;5.6;3.7;;;;;;;12.53;91.00098;95181.09;;;;
2021/09/20 03:15:50;;;;;;;5.6;3.7;;;;;;;12.53;91.00098;95181.09;;;;
2021/09/20 03:16:51;;;;;;;5.6;3.7;;;;;;;12.53;91.00098;95181.09;;;;
2021/09/20 03:17:51;;;;;;;5.6;3.7;;;;;;;12.53;91.00098;95181.09;;;;
2021/09/20 03:18:52;;;;;;;4.55;4.1;;;;;;;12.5;91.22852;95185.66;;;;
2021/09/20 03:19:52;;;;;;;4.55;4.1;;;;;;;12.5;91.22852;95185.66;;;;
2021/09/20 03:20:53;;;;;;;4.55;4.1;;;;;;;12.5;91.22852;95185.66;;;;
2021/09/20 03:21:53;;;;;;;4.55;4.1;;;;;;;12.5;91.22852;95185.66;;;;
2021/09/20 03:22:54;;;;;;;4.55;4.1;;;;;;;12.5;91.22852;95185.66;;;;
2021/09/20 03:23:55;;;;;;;4.55;4.1;;;;;;;12.5;91.22852;95185.66;;;;
2021/09/20 03:24:55;;;;;;;4.55;4.1;;;;;;;12.5;91.22852;95185.66;;;;
2021/09/20 03:25:56;;;;;;;4.55;4.1;;;;;;;12.5;91.22852;95185.66;;;;
2021/09/20 03:26:57;;;;;;;4.55;4.1;;;;;;;12.5;91.22852;95185.66;;;;
2021/09/20 03:27:57;;;;;;;4.55;4.1;;;;;;;12.5;91.22852;95185.66;;;;
2021/09/20 03:28:58;;;;;;;6.399999;4.75;;;;;;;12.45;91.54004;95184.63;;;;
2021/09/20 03:29:58;;;;;;;6.399999;4.75;;;;;;;12.45;91.54004;95184.63;;;;
2021/09/20 03:30:59;;;;;;;6.399999;4.75;;;;;;;12.45;91.54004;95184.63;;;;
2021/09/20 03:31:59;;;;;;;6.399999;4.75;;;;;;;12.45;91.54004;95184.63;;;;
2021/09/20 03:33:00;;;;;;;6.399999;4.75;;;;;;;12.45;91.54004;95184.63;;;;
2021/09/20 03:34:00;;;;;;;6.399999;4.75;;;;;;;12.45;91.54004;95184.63;;;;
2021/09/20 03:35:01;;;;;;;6.399999;4.75;;;;;;;12.45;91.54004;95184.63;;;;
2021/09/20 03:36:04;;;;;;;6.399999;4.75;;;;;;;12.45;91.54004;95184.63;;;;
2021/09/20 03:37:04;;;;;;;6.399999;4.75;;;;;;;12.45;91.54004;95184.63;;;;
2021/09/20 03:38:05;;;;;;;6.399999;4.75;;;;;;;12.45;91.54004;95184.63;;;;
2021/09/20 03:39:05;;;;;;;6.399999;4.75;;;;;;;12.45;91.54004;95184.63;;;;
2021/09/20 03:40:06;;;;;;;5.95;4.649999;;;;;;;12.47;91.88574;95189.26;;;;
2021/09/20 03:41:08;;;;;;;5.95;4.649999;;;;;;;12.47;91.88574;95189.26;;;;
2021/09/20 03:42:08;;;;;;;5.95;4.649999;;;;;;;12.47;91.88574;95189.26;;;;
2021/09/20 03:43:09;;;;;;;5.95;4.649999;;;;;;;12.47;91.88574;95189.26;;;;
2021/09/20 03:44:09;;;;;;;5.95;4.649999;;;;;;;12.47;91.88574;95189.26;;;;
2021/09/20 03:45:10;;;;;;;5.95;4.649999;;;;;;;12.47;91.88574;95189.26;;;;
2021/09/20 03:46:12;;;;;;;5.95;4.649999;;;;;;;12.47;91.88574;95189.26;;;;
2021/09/20 03:47:12;;;;;;;5.95;4.649999;;;;;;;12.47;91.88574;95189.26;;;;
2021/09/20 03:48:13;;;;;;;5.95;4.649999;;;;;;;12.47;91.88574;95189.26;;;;
2021/09/20 03:49:14;;;;;;;5.95;4.649999;;;;;;;12.47;91.88574;95189.26;;;;
2021/09/20 03:50:14;;;;;;;7;4.849999;;;;;;;12.47;92.02441;95195.62;;;;
2021/09/20 03:51:15;;;;;;;7;4.849999;;;;;;;12.47;92.02441;95195.62;;;;
2021/09/20 03:52:16;;;;;;;7;4.849999;;;;;;;12.47;92.02441;95195.62;;;;
2021/09/20 03:53:16;;;;;;;7;4.849999;;;;;;;12.47;92.02441;95195.62;;;;
2021/09/20 03:54:17;;;;;;;7;4.849999;;;;;;;12.47;92.02441;95195.62;;;;
2021/09/20 03:55:17;;;;;;;7;4.849999;;;;;;;12.47;92.02441;95195.62;;;;
2021/09/20 03:56:18;;;;;;;7;4.849999;;;;;;;12.47;92.02441;95195.62;;;;
2021/09/20 03:57:18;;;;;;;7;4.849999;;;;;;;12.47;92.02441;95195.62;;;;
2021/09/20 03:58:19;;;;;;;7;4.849999;;;;;;;12.47;92.02441;95195.62;;;;
2021/09/20 03:59:19;;;;;;;7;4.849999;;;;;;;12.47;92.02441;95195.62;;;;
2021/09/20 04:00:20;;;;;;;7;4.849999;;;;;;;12.47;92.02441;95195.62;;;;
2021/09/20 04:01:20;;;;;;;5.05;4.45;;;;;;;12.46;92.36719;95205.66;;;;
2021/09/20 04:02:21;;;;;;;5.05;4.45;;;;;;;12.46;92.36719;95205.66;;;;
2021/09/20 04:03:21;;;;;;;5.05;4.45;;;;;;;12.46;92.36719;95205.66;;;;
2021/09/20 04:04:22;;;;;;;5.05;4.45;;;;;;;12.46;92.36719;95205.66;;;;
2021/09/20 04:05:22;;;;;;;5.05;4.45;;;;;;;12.46;92.36719;95205.66;;;;
2021/09/20 04:06:23;;;;;;;5.05;4.45;;;;;;;12.46;92.36719;95205.66;;;;
2021/09/20 04:07:24;;;;;;;5.05;4.45;;;;;;;12.46;92.36719;95205.66;;;;
2021/09/20 04:08:27;;;;;;;5.05;4.45;;;;;;;12.46;92.36719;95205.66;;;;
2021/09/20 04:09:28;;;;;;;5.05;4.45;;;;;;;12.46;92.36719;95205.66;;;;
2021/09/20 04:10:28;;;;;;;5.05;4.45;;;;;;;12.46;92.36719;95205.66;;;;
2021/09/20 04:11:29;;;;;;;7.3;5.5;;;;;;;12.36;92.7832;95197.78;;;;
2021/09/20 04:12:30;;;;;;;7.3;5.5;;;;;;;12.36;92.7832;95197.78;;;;
2021/09/20 04:13:30;;;;;;;7.3;5.5;;;;;;;12.36;92.7832;95197.78;;;;
2021/09/20 04:14:31;;;;;;;7.3;5.5;;;;;;;12.36;92.7832;95197.78;;;;
2021/09/20 04:15:31;;;;;;;7.3;5.5;;;;;;;12.36;92.7832;95197.78;;;;
2021/09/20 04:16:32;;;;;;;7.3;5.5;;;;;;;12.36;92.7832;95197.78;;;;
2021/09/20 04:17:32;;;;;;;7.3;5.5;;;;;;;12.36;92.7832;95197.78;;;;
2021/09/20 04:18:33;;;;;;;7.3;5.5;;;;;;;12.36;92.7832;95197.78;;;;
2021/09/20 04:19:33;;;;;;;7.3;5.5;;;;;;;12.36;92.7832;95197.78;;;;
2021/09/20 04:20:34;;;;;;;7.3;5.5;;;;;;;12.36;92.7832;95197.78;;;;
2021/09/20 04:21:35;;;;;;;7.3;5.5;;;;;;;12.36;92.7832;95197.78;;;;
2021/09/20 04:22:36;;;;;;;12.35;10.35;;;;;;;12.28;93.2998;95206.45;;;;
2021/09/20 04:23:36;;;;;;;12.35;10.35;;;;;;;12.28;93.2998;95206.45;;;;
2021/09/20 04:24:37;;;;;;;12.35;10.35;;;;;;;12.28;93.2998;95206.45;;;;
2021/09/20 04:25:38;;;;;;;12.35;10.35;;;;;;;12.28;93.2998;95206.45;;;;
2021/09/20 04:26:38;;;;;;;12.35;10.35;;;;;;;12.28;93.2998;95206.45;;;;
2021/09/20 04:27:39;;;;;;;12.35;10.35;;;;;;;12.28;93.2998;95206.45;;;;
2021/09/20 04:28:39;;;;;;;12.35;10.35;;;;;;;12.28;93.2998;95206.45;;;;
2021/09/20 04:29:40;;;;;;;12.35;10.35;;;;;;;12.28;93.2998;95206.45;;;;
2021/09/20 04:30:43;;;;;;;12.35;10.35;;;;;;;12.28;93.2998;95206.45;;;;
2021/09/20 04:31:44;;;;;;;12.35;10.35;;;;;;;12.28;93.2998;95206.45;;;;
2021/09/20 04:32:44;;;;;;;12.35;10.35;;;;;;;12.28;93.2998;95206.45;;;;
2021/09/20 04:33:45;;;;;;;17.9;15;;;;;;;12.15;93.69824;95213.03;;;;
2021/09/20 04:34:45;;;;;;;17.9;15;;;;;;;12.15;93.69824;95213.03;;;;
2021/09/20 04:35:46;;;;;;;17.9;15;;;;;;;12.15;93.69824;95213.03;;;;
2021/09/20 04:36:48;;;;;;;17.9;15;;;;;;;12.15;93.69824;95213.03;;;;
2021/09/20 04:37:48;;;;;;;17.9;15;;;;;;;12.15;93.69824;95213.03;;;;
2021/09/20 04:38:48;;;;;;;17.9;15;;;;;;;12.15;93.69824;95213.03;;;;
2021/09/20 04:39:49;;;;;;;17.9;15;;;;;;;12.15;93.69824;95213.03;;;;
2021/09/20 04:40:49;;;;;;;17.9;15;;;;;;;12.15;93.69824;95213.03;;;;
2021/09/20 04:41:50;;;;;;;17.9;15;;;;;;;12.15;93.69824;95213.03;;;;
2021/09/20 04:42:51;;;;;;;17.9;15;;;;;;;12.15;93.69824;95213.03;;;;
2021/09/20 04:43:51;;;;;;;19.55;15.25;;;;;;;12.02;93.98047;95223.77;;;;
2021/09/20 04:44:52;;;;;;;19.55;15.25;;;;;;;12.02;93.98047;95223.77;;;;
2021/09/20 04:45:52;;;;;;;19.55;15.25;;;;;;;12.02;93.98047;95223.77;;;;
2021/09/20 04:46:53;;;;;;;19.55;15.25;;;;;;;12.02;93.98047;95223.77;;;;
2021/09/20 04:47:53;;;;;;;19.55;15.25;;;;;;;12.02;93.98047;95223.77;;;;
2021/09/20 04:48:54;;;;;;;19.55;15.25;;;;;;;12.02;93.98047;95223.77;;;;
2021/09/20 04:49:54;;;;;;;19.55;15.25;;;;;;;12.02;93.98047;95223.77;;;;
2021/09/20 04:50:57;;;;;;;19.55;15.25;;;;;;;12.02;93.98047;95223.77;;;;
2021/09/20 04:51:57;;;;;;;19.55;15.25;;;;;;;12.02;93.98047;95223.77;;;;
2021/09/20 04:52:58;;;;;;;19.55;15.25;;;;;;;12.02;93.98047;95223.77;;;;
2021/09/20 04:53:58;;;;;;;19.55;15.25;;;;;;;12.02;93.98047;95223.77;;;;
2021/09/20 04:54:59;;;;;;;20.9;16.5;;;;;;;11.99;94.26172;95233.21;;;;
2021/09/20 04:56:00;;;;;;;20.9;16.5;;;;;;;11.99;94.26172;95233.21;;;;
2021/09/20 04:57:00;;;;;;;20.9;16.5;;;;;;;11.99;94.26172;95233.21;;;;
2021/09/20 04:58:02;;;;;;;20.9;16.5;;;;;;;11.99;94.26172;95233.21;;;;
2021/09/20 04:59:04;;;;;;;20.9;16.5;;;;;;;11.99;94.26172;95233.21;;;;
2021/09/20 05:00:04;;;;;;;20.9;16.5;;;;;;;11.99;94.26172;95233.21;;;;
2021/09/20 05:01:08;;;;;;;20.9;16.5;;;;;;;11.99;94.26172;95233.21;;;;
2021/09/20 05:02:09;;;;;;;20.9;16.5;;;;;;;11.99;94.26172;95233.21;;;;
2021/09/20 05:03:09;;;;;;;20.9;16.5;;;;;;;11.99;94.26172;95233.21;;;;
2021/09/20 05:04:10;;;;;;;20.9;16.5;;;;;;;11.99;94.26172;95233.21;;;;
2021/09/20 05:05:11;;;;;;;18.95;15.85;;;;;;;11.98;94.3877;95244.28;;;;
2021/09/20 05:06:11;;;;;;;18.95;15.85;;;;;;;11.98;94.3877;95244.28;;;;
2021/09/20 05:07:12;;;;;;;18.95;15.85;;;;;;;11.98;94.3877;95244.28;;;;
2021/09/20 05:08:12;;;;;;;18.95;15.85;;;;;;;11.98;94.3877;95244.28;;;;
2021/09/20 05:09:13;;;;;;;18.95;15.85;;;;;;;11.98;94.3877;95244.28;;;;
2021/09/20 05:10:15;;;;;;;18.95;15.85;;;;;;;11.98;94.3877;95244.28;;;;
2021/09/20 05:11:15;;;;;;;18.95;15.85;;;;;;;11.98;94.3877;95244.28;;;;
2021/09/20 05:12:16;;;;;;;18.95;15.85;;;;;;;11.98;94.3877;95244.28;;;;
2021/09/20 05:13:16;;;;;;;18.95;15.85;;;;;;;11.98;94.3877;95244.28;;;;
2021/09/20 05:14:17;;;;;;;18.95;15.85;;;;;;;11.98;94.3877;95244.28;;;;
2021/09/20 05:15:17;;;;;;;18.95;15.85;;;;;;;11.98;94.3877;95244.28;;;;
2021/09/20 05:16:18;;;;;;;22.9;17.9;;;;;;;11.95;94.6084;95246;;;;
2021/09/20 05:17:18;;;;;;;22.9;17.9;;;;;;;11.95;94.6084;95246;;;;
2021/09/20 05:18:19;;;;;;;22.9;17.9;;;;;;;11.95;94.6084;95246;;;;
2021/09/20 05:19:19;;;;;;;22.9;17.9;;;;;;;11.95;94.6084;95246;;;;
2021/09/20 05:20:20;;;;;;;22.9;17.9;;;;;;;11.95;94.6084;95246;;;;
2021/09/20 05:21:21;;;;;;;22.9;17.9;;;;;;;11.95;94.6084;95246;;;;
2021/09/20 05:22:22;;;;;;;22.9;17.9;;;;;;;11.95;94.6084;95246;;;;
2021/09/20 05:23:22;;;;;;;22.9;17.9;;;;;;;11.95;94.6084;95246;;;;
2021/09/20 05:24:23;;;;;;;22.9;17.9;;;;;;;11.95;94.6084;95246;;;;
2021/09/20 05:25:24;;;;;;;22.9;17.9;;;;;;;11.95;94.6084;95246;;;;
2021/09/20 05:26:24;;;;;;;20.7;16.4;;;;;;;11.97;94.9541;95258.75;;;;
2021/09/20 05:27:28;;;;;;;20.7;16.4;;;;;;;11.97;94.9541;95258.75;;;;
2021/09/20 05:28:28;;;;;;;20.7;16.4;;;;;;;11.97;94.9541;95258.75;;;;
2021/09/20 05:29:29;;;;;;;20.7;16.4;;;;;;;11.97;94.9541;95258.75;;;;
2021/09/20 05:30:30;;;;;;;20.7;16.4;;;;;;;11.97;94.9541;95258.75;;;;
2021/09/20 05:31:30;;;;;;;20.7;16.4;;;;;;;11.97;94.9541;95258.75;;;;
2021/09/20 05:32:30;;;;;;;20.7;16.4;;;;;;;11.97;94.9541;95258.75;;;;
2021/09/20 05:33:34;;;;;;;20.7;16.4;;;;;;;11.97;94.9541;95258.75;;;;
2021/09/20 05:34:35;;;;;;;20.7;16.4;;;;;;;11.97;94.9541;95258.75;;;;
2021/09/20 05:35:35;;;;;;;20.7;16.4;;;;;;;11.97;94.9541;95258.75;;;;
2021/09/20 05:36:36;;;;;;;20.7;16.4;;;;;;;11.97;94.9541;95258.75;;;;
2021/09/20 05:37:37;;;;;;;22.3;17.15;;;;;;;12;95.09668;95262.84;;;;
2021/09/20 05:38:39;;;;;;;22.3;17.15;;;;;;;12;95.09668;95262.84;;;;
2021/09/20 05:39:39;;;;;;;22.3;17.15;;;;;;;12;95.09668;95262.84;;;;
2021/09/20 05:40:40;;;;;;;22.3;17.15;;;;;;;12;95.09668;95262.84;;;;
2021/09/20 05:41:41;;;;;;;22.3;17.15;;;;;;;12;95.09668;95262.84;;;;
2021/09/20 05:42:42;;;;;;;22.3;17.15;;;;;;;12;95.09668;95262.84;;;;
2021/09/20 05:43:43;;;;;;;22.3;17.15;;;;;;;12;95.09668;95262.84;;;;
2021/09/20 05:44:44;;;;;;;22.3;17.15;;;;;;;12;95.09668;95262.84;;;;